Time;durP1;ratioP1;P1;durP2;ratioP2;P2;SDS_P1;SDS_P2;PMS_P1;PMS_P2;Temp;Humidity;BMP_temperature;BMP_pressure;BME280_temperature;BME280_humidity;BME280_pressure;Samples;Min_cycle;Max_cycle;Signal;HPM_P1;HPM_P2
2022/05/12 00:00:53;;;;;;;11.30;2.92;;;;;;;14.09;73.84;101352.47;5024699;28;20021;-76
2022/05/12 00:03:18;;;;;;;10.38;2.50;;;;;;;14.01;72.75;101351.84;5028961;28;20025;-76
2022/05/12 00:05:44;;;;;;;10.65;2.80;;;;;;;13.97;74.04;101359.81;5031432;28;20029;-77
2022/05/12 00:08:10;;;;;;;10.95;2.67;;;;;;;13.91;73.66;101362.59;5030355;28;20496;-77
2022/05/12 00:10:37;;;;;;;11.55;2.90;;;;;;;13.83;73.50;101358.47;5030184;28;20021;-77
2022/05/12 00:13:03;;;;;;;7.75;2.35;;;;;;;13.74;73.22;101361.31;5030644;28;20029;-77
2022/05/12 00:15:31;;;;;;;8.75;2.63;;;;;;;13.72;74.45;101365.72;5044924;28;20033;-77
2022/05/12 00:17:57;;;;;;;9.20;2.63;;;;;;;13.67;72.91;101369.34;5028330;28;20091;-77
2022/05/12 00:20:23;;;;;;;9.90;2.67;;;;;;;13.64;74.06;101366.84;5032347;28;20017;-81
2022/05/12 00:22:49;;;;;;;11.15;2.97;;;;;;;13.57;73.83;101373.13;5031796;28;20467;-81
2022/05/12 00:25:21;;;;;;;13.38;2.80;;;;;;;13.56;74.16;101368.81;5029593;28;20040;-81
2022/05/12 00:27:46;;;;;;;7.32;2.30;;;;;;;13.50;74.48;101382.00;5027672;28;20156;-81
2022/05/12 00:30:12;;;;;;;9.48;2.80;;;;;;;13.46;74.64;101386.41;5031056;28;20149;-81
2022/05/12 00:32:43;;;;;;;8.48;2.50;;;;;;;13.40;74.47;101384.84;5030540;28;20041;-81
2022/05/12 00:35:10;;;;;;;11.02;2.53;;;;;;;13.36;74.55;101388.44;5030774;28;20035;-81
2022/05/12 00:37:36;;;;;;;11.20;2.55;;;;;;;13.30;75.20;101390.34;5030350;28;20041;-81
2022/05/12 00:40:01;;;;;;;9.68;2.70;;;;;;;13.25;75.25;101393.03;5031389;28;20018;-81
2022/05/12 00:42:27;;;;;;;7.00;2.42;;;;;;;13.22;75.42;101402.69;5028980;28;20567;-81
2022/05/12 00:44:52;;;;;;;11.07;2.67;;;;;;;13.17;75.68;101404.56;5039727;28;20041;-81
2022/05/12 00:47:18;;;;;;;9.25;2.63;;;;;;;13.12;75.70;101406.38;5039388;28;20484;-81
2022/05/12 00:49:46;;;;;;;10.38;2.83;;;;;;;13.09;76.67;101401.25;5019274;28;20227;-81
2022/05/12 00:52:18;;;;;;;7.32;2.55;;;;;;;13.04;76.20;101406.56;5029713;28;20038;-81
2022/05/12 00:54:52;;;;;;;9.38;2.58;;;;;;;12.98;75.71;101406.72;5037502;28;20029;-81
2022/05/12 00:57:26;;;;;;;9.73;2.50;;;;;;;12.95;76.59;101404.22;5033205;28;20058;-77
2022/05/12 00:59:51;;;;;;;9.77;2.53;;;;;;;12.89;75.46;101410.44;5027812;28;20029;-77
2022/05/12 01:02:19;;;;;;;8.00;2.27;;;;;;;12.89;76.50;101414.78;5031025;28;20029;-77
2022/05/12 01:04:47;;;;;;;9.75;2.50;;;;;;;12.82;75.93;101408.88;5041993;28;20701;-77
2022/05/12 01:07:13;;;;;;;10.52;2.40;;;;;;;12.78;75.93;101411.56;5027724;28;20029;-77
2022/05/12 01:09:38;;;;;;;8.15;2.83;;;;;;;12.71;76.07;101410.84;5030511;28;20033;-77
2022/05/12 01:12:04;;;;;;;9.57;3.00;;;;;;;12.65;76.08;101416.19;5028254;28;20029;-77
2022/05/12 01:14:30;;;;;;;8.68;3.10;;;;;;;12.64;76.26;101419.69;5029391;28;20037;-77
2022/05/12 01:16:57;;;;;;;10.23;2.85;;;;;;;12.64;77.63;101423.13;5030933;28;20022;-77
2022/05/12 01:19:31;;;;;;;8.75;2.83;;;;;;;12.61;76.10;101433.63;5033911;28;20077;-77
2022/05/12 01:21:57;;;;;;;4.28;2.58;;;;;;;12.57;76.83;101424.16;5029645;28;20056;-77
2022/05/12 01:24:26;;;;;;;8.48;2.58;;;;;;;12.55;76.04;101432.91;5041418;28;20087;-77
2022/05/12 01:26:51;;;;;;;7.47;2.42;;;;;;;12.55;77.27;101441.56;5028750;28;20025;-77
2022/05/12 01:29:17;;;;;;;11.57;2.40;;;;;;;12.50;76.37;101439.94;5029793;28;20033;-81
2022/05/12 01:31:43;;;;;;;6.10;2.38;;;;;;;12.47;75.84;101450.41;5026430;28;20642;-81
2022/05/12 01:34:11;;;;;;;6.90;2.40;;;;;;;12.44;76.24;101447.88;5046760;28;20036;-81
2022/05/12 01:36:37;;;;;;;7.45;2.08;;;;;;;12.44;76.44;101446.13;5030567;28;20021;-81
2022/05/12 01:39:04;;;;;;;7.95;2.20;;;;;;;12.42;76.95;101455.69;5025485;28;20045;-81
2022/05/12 01:41:30;;;;;;;4.85;2.20;;;;;;;12.36;76.14;101458.44;5043717;28;20017;-81
2022/05/12 01:43:55;;;;;;;6.32;2.13;;;;;;;12.33;75.66;101468.06;5036153;28;20341;-81
2022/05/12 01:46:20;;;;;;;5.65;2.47;;;;;;;12.26;75.52;101467.31;5033036;28;20087;-81
2022/05/12 01:48:46;;;;;;;6.00;2.05;;;;;;;12.21;76.83;101466.56;5030223;28;20018;-81
2022/05/12 01:51:11;;;;;;;5.97;2.08;;;;;;;12.18;77.19;101470.06;5010877;28;20026;-81
2022/05/12 01:53:37;;;;;;;6.65;2.30;;;;;;;12.18;76.86;101477.00;5036943;28;20034;-81
2022/05/12 01:56:05;;;;;;;7.25;2.15;;;;;;;12.14;77.13;101477.97;5029507;28;20025;-81
2022/05/12 01:58:30;;;;;;;4.35;2.08;;;;;;;12.10;77.02;101477.16;5018446;28;20091;-81
2022/05/12 02:00:56;;;;;;;5.43;2.10;;;;;;;12.06;76.88;101470.34;5028206;28;20060;-81
2022/05/12 02:03:21;;;;;;;6.22;2.00;;;;;;;12.04;77.55;101466.91;5029620;28;20033;-81
2022/05/12 02:05:47;;;;;;;6.07;2.20;;;;;;;11.96;76.85;101473.13;5028524;28;20022;-81
2022/05/12 02:08:14;;;;;;;5.28;2.20;;;;;;;11.94;77.18;101477.50;5024215;28;20072;-81
2022/05/12 02:10:42;;;;;;;7.75;1.95;;;;;;;11.90;77.65;101488.81;5030158;28;20034;-81
2022/05/12 02:13:10;;;;;;;5.47;2.20;;;;;;;11.85;78.06;101487.19;5030127;28;20029;-81
2022/05/12 02:15:36;;;;;;;8.05;2.90;;;;;;;11.82;77.71;101500.22;5030959;28;20063;-81
2022/05/12 02:18:03;;;;;;;11.13;3.97;;;;;;;11.80;78.60;101495.94;5030775;28;20025;-81
2022/05/12 02:20:28;;;;;;;10.35;3.47;;;;;;;11.77;78.54;101503.78;5031016;28;20033;-81
2022/05/12 02:22:53;;;;;;;8.55;3.22;;;;;;;11.74;78.23;101501.22;5029882;28;20122;-81
2022/05/12 02:25:19;;;;;;;7.30;2.50;;;;;;;11.73;78.59;101502.97;5031272;28;20021;-81
2022/05/12 02:27:46;;;;;;;7.63;2.75;;;;;;;11.67;76.95;101505.63;5033956;28;20060;-81
2022/05/12 02:30:15;;;;;;;6.82;2.75;;;;;;;11.66;78.21;101505.69;5026923;28;20025;-81
2022/05/12 02:32:41;;;;;;;9.80;2.80;;;;;;;11.60;78.51;101504.03;5029027;28;20029;-81
2022/05/12 02:35:07;;;;;;;7.27;2.50;;;;;;;11.60;78.83;101506.63;5028759;28;20040;-81
2022/05/12 02:37:32;;;;;;;6.03;2.58;;;;;;;11.55;78.50;101513.66;5029934;28;20385;-81
2022/05/12 02:39:57;;;;;;;6.80;3.08;;;;;;;11.47;78.39;101513.78;5032986;28;20051;-81
2022/05/12 02:42:23;;;;;;;8.40;2.40;;;;;;;11.40;78.55;101526.88;5033587;28;20391;-81
2022/05/12 02:44:48;;;;;;;7.47;2.60;;;;;;;11.34;78.93;101526.97;5030972;28;20079;-81
2022/05/12 02:47:14;;;;;;;4.67;2.37;;;;;;;11.27;79.01;101534.00;5028936;28;20299;-81
2022/05/12 02:49:40;;;;;;;5.72;2.28;;;;;;;11.24;79.61;101541.84;5030691;28;20274;-81
2022/05/12 02:52:07;;;;;;;7.07;2.80;;;;;;;11.18;79.87;101530.72;5028482;28;20113;-81
2022/05/12 02:54:33;;;;;;;7.18;2.63;;;;;;;11.11;79.80;101534.28;5032487;28;20021;-81
2022/05/12 02:56:58;;;;;;;8.30;2.80;;;;;;;11.06;79.41;101537.78;5036271;28;20071;-81
2022/05/12 02:59:24;;;;;;;8.40;2.97;;;;;;;11.03;79.86;101545.63;5027745;28;20050;-81
2022/05/12 03:01:49;;;;;;;6.45;2.60;;;;;;;11.04;80.51;101547.34;5027325;28;20330;-81
2022/05/12 03:04:16;;;;;;;6.90;2.80;;;;;;;10.96;79.96;101543.13;5029645;28;20075;-81
2022/05/12 03:06:42;;;;;;;7.45;2.70;;;;;;;10.89;79.59;101538.91;5029341;28;20026;-81
2022/05/12 03:09:08;;;;;;;7.70;3.10;;;;;;;10.85;80.51;101543.25;5031945;28;20025;-81
2022/05/12 03:11:34;;;;;;;8.38;3.28;;;;;;;10.83;81.14;101539.84;5036998;28;20025;-81
2022/05/12 03:13:59;;;;;;;10.25;2.80;;;;;;;10.83;81.47;101551.97;5029306;28;20397;-81
2022/05/12 03:16:25;;;;;;;11.82;3.35;;;;;;;10.81;81.20;101551.13;5028561;28;20113;-81
2022/05/12 03:18:51;;;;;;;8.18;3.10;;;;;;;10.81;81.60;101558.91;5032590;28;20029;-81
2022/05/12 03:21:18;;;;;;;12.05;3.45;;;;;;;10.84;82.19;101554.53;5032064;28;20038;-81
2022/05/12 03:23:44;;;;;;;6.88;3.08;;;;;;;10.87;82.05;101561.41;5035153;28;20051;-81
2022/05/12 03:26:10;;;;;;;8.50;3.25;;;;;;;10.83;81.91;101555.41;5041223;28;20399;-81
2022/05/12 03:28:37;;;;;;;8.30;2.60;;;;;;;10.80;81.56;101552.00;5037423;28;20033;-81
2022/05/12 03:31:03;;;;;;;12.25;3.47;;;;;;;10.74;81.18;101555.53;5031411;28;20104;-81
2022/05/12 03:33:28;;;;;;;9.65;3.53;;;;;;;10.71;81.81;101555.59;5032237;28;20043;-81
2022/05/12 03:35:54;;;;;;;10.07;3.30;;;;;;;10.64;81.26;101559.97;5033101;28;20021;-81
2022/05/12 03:38:20;;;;;;;10.60;3.00;;;;;;;10.60;81.34;101566.06;5033857;28;20021;-81
2022/05/12 03:40:46;;;;;;;9.43;3.08;;;;;;;10.56;82.03;101563.53;5030049;28;20025;-81
2022/05/12 03:44:46;;;;;;;8.63;3.25;;;;;;;10.56;82.40;101571.31;5040980;28;20033;-81
2022/05/12 03:45:57;;;;;;;11.20;3.53;;;;;;;10.50;82.45;101577.44;5032592;28;20132;-81
2022/05/12 03:48:23;;;;;;;12.43;3.90;;;;;;;10.51;82.54;101586.03;5030270;28;20029;-81
2022/05/12 03:50:48;;;;;;;8.35;2.97;;;;;;;10.49;82.91;101586.09;5030275;28;20052;-81
2022/05/12 03:53:14;;;;;;;12.98;3.95;;;;;;;10.48;83.10;101589.56;5040983;28;20044;-81
2022/05/12 03:55:39;;;;;;;9.67;3.67;;;;;;;10.49;82.42;101605.97;5030906;28;20033;-81
2022/05/12 03:58:04;;;;;;;9.25;3.47;;;;;;;10.48;82.72;101601.66;5029279;28;20374;-81
2022/05/12 04:00:31;;;;;;;12.25;4.00;;;;;;;10.52;83.43;101601.59;5031504;28;20037;-81
2022/05/12 04:02:57;;;;;;;15.77;4.40;;;;;;;10.50;83.17;101605.09;5032955;28;20037;-81
2022/05/12 04:05:22;;;;;;;11.23;4.57;;;;;;;10.48;83.19;101612.88;5032644;28;20087;-81
2022/05/12 04:07:48;;;;;;;10.40;4.20;;;;;;;10.48;82.48;101612.88;5026275;28;20062;-81
2022/05/12 04:10:15;;;;;;;15.00;4.78;;;;;;;10.52;83.44;101614.56;5034763;28;20467;-81
2022/05/12 04:12:41;;;;;;;15.23;4.80;;;;;;;10.50;82.90;101613.72;5040503;28;20029;-81
2022/05/12 04:15:08;;;;;;;18.65;5.07;;;;;;;10.54;83.75;101615.41;5029249;28;20040;-81
2022/05/12 04:17:33;;;;;;;14.30;4.90;;;;;;;10.55;83.28;101624.91;5026136;28;20128;-81
2022/05/12 04:20:07;;;;;;;15.10;5.38;;;;;;;10.53;83.18;101626.63;5038605;28;20137;-81
2022/05/12 04:22:33;;;;;;;12.00;5.32;;;;;;;10.55;83.26;101629.22;5040921;28;20048;-81
2022/05/12 04:24:59;;;;;;;17.63;5.80;;;;;;;10.55;83.04;101637.84;5028765;28;20025;-81
2022/05/12 04:27:24;;;;;;;17.48;6.43;;;;;;;10.57;83.75;101633.53;5030793;28;20029;-81
2022/05/12 04:29:49;;;;;;;15.30;5.82;;;;;;;10.58;83.35;101626.56;5032460;28;20032;-81
2022/05/12 04:32:15;;;;;;;22.03;6.73;;;;;;;10.60;83.88;101630.03;5035296;28;20017;-81
2022/05/12 04:37:26;;;;;;;19.07;7.60;;;;;;;10.66;83.89;101651.56;5040605;28;20298;-81
2022/05/12 04:39:52;;;;;;;18.42;6.72;;;;;;;10.72;84.24;101649.75;5032897;28;20067;-81
2022/05/12 04:42:17;;;;;;;20.35;7.40;;;;;;;10.73;83.69;101644.56;5029981;28;20037;-81
2022/05/12 04:44:42;;;;;;;20.57;7.90;;;;;;;10.79;84.17;101649.69;5030148;28;20026;-81
2022/05/12 04:47:08;;;;;;;24.67;8.63;;;;;;;10.86;85.09;101647.88;5037976;28;20283;-81
2022/05/12 04:49:33;;;;;;;19.75;8.27;;;;;;;10.90;85.01;101653.03;5035413;28;20284;-81
2022/05/12 04:52:01;;;;;;;22.67;8.88;;;;;;;10.95;85.31;101650.38;5040427;28;20132;-81
2022/05/12 04:54:27;;;;;;;24.05;8.85;;;;;;;10.97;84.64;101661.59;5035199;28;20056;-81
2022/05/12 04:56:52;;;;;;;21.58;8.70;;;;;;;11.06;84.49;101659.72;5029802;28;20049;-81
2022/05/12 04:59:18;;;;;;;25.57;9.23;;;;;;;11.14;84.38;101663.94;5030545;28;20057;-81
2022/05/12 05:01:43;;;;;;;28.02;10.00;;;;;;;11.25;84.58;101673.34;5031589;28;20272;-81
2022/05/12 05:04:08;;;;;;;25.50;9.60;;;;;;;11.33;84.29;101671.47;5037443;28;20025;-81
2022/05/12 05:06:34;;;;;;;28.60;10.35;;;;;;;11.40;84.94;101667.06;5028779;28;20705;-81
2022/05/12 05:09:00;;;;;;;31.15;11.38;;;;;;;11.54;85.09;101678.09;5027729;28;20025;-81
2022/05/12 05:11:26;;;;;;;34.40;10.90;;;;;;;11.77;84.18;101670.03;5041877;28;20017;-81
2022/05/12 05:13:51;;;;;;;25.30;11.07;;;;;;;11.91;84.48;101677.59;5021849;28;20066;-81
2022/05/12 05:16:17;;;;;;;33.38;11.65;;;;;;;11.94;83.75;101686.19;5030404;28;20033;-81
2022/05/12 05:18:44;;;;;;;32.20;11.80;;;;;;;12.01;83.11;101689.56;5030528;28;20085;-81
2022/05/12 05:21:10;;;;;;;34.15;11.45;;;;;;;12.08;83.62;101693.75;5031466;28;20040;-81
2022/05/12 05:23:37;;;;;;;33.28;13.02;;;;;;;12.14;84.96;101688.50;5040800;28;20110;-81
2022/05/12 05:26:02;;;;;;;43.15;14.10;;;;;;;12.22;85.11;101691.78;5028318;28;20045;-81
2022/05/12 05:28:28;;;;;;;38.55;14.05;;;;;;;12.27;85.02;101706.47;5021031;28;20401;-81
2022/05/12 05:30:54;;;;;;;40.25;14.93;;;;;;;12.41;85.96;101701.03;5021101;28;20148;-81
2022/05/12 05:33:20;;;;;;;35.25;13.95;;;;;;;12.77;85.04;101703.81;5018523;28;20113;-81
2022/05/12 05:35:45;;;;;;;39.95;14.77;;;;;;;13.18;83.57;101703.88;5018718;28;20112;-81
2022/05/12 05:38:11;;;;;;;40.83;15.07;;;;;;;13.63;81.66;101709.00;5017881;28;20132;-81
2022/05/12 05:40:37;;;;;;;34.80;14.30;;;;;;;13.97;81.66;101715.16;5022447;28;20041;-81
2022/05/12 05:43:03;;;;;;;36.75;14.00;;;;;;;14.13;80.14;101718.22;5024163;28;20030;-81
2022/05/12 05:45:29;;;;;;;36.55;14.20;;;;;;;14.25;78.92;101717.97;5029681;28;20415;-82
2022/05/12 05:47:58;;;;;;;35.20;14.18;;;;;;;14.31;78.75;101727.38;5035676;28;20032;-81
2022/05/12 05:53:36;;;;;;;35.97;14.88;;;;;;;14.54;78.03;101740.72;5027440;28;20149;-81
2022/05/12 05:56:04;;;;;;;35.75;13.52;;;;;;;14.53;78.08;101733.81;5020450;28;20029;-81
2022/05/12 05:58:30;;;;;;;36.03;14.45;;;;;;;14.63;77.43;101746.56;5036818;28;20050;-81
2022/05/12 06:00:56;;;;;;;40.55;14.70;;;;;;;14.68;77.69;101756.88;5019805;28;20502;-81
2022/05/12 06:03:22;;;;;;;35.90;14.75;;;;;;;14.77;76.59;101764.47;5028115;28;20092;-81
2022/05/12 06:05:47;;;;;;;35.92;14.48;;;;;;;14.84;77.91;101758.19;5028164;28;20112;-81
2022/05/12 06:08:15;;;;;;;36.63;13.90;;;;;;;14.92;76.87;101774.50;5029819;28;20029;-81
2022/05/12 06:10:42;;;;;;;35.55;13.65;;;;;;;14.93;75.75;101771.00;5024766;28;20029;-81
2022/05/12 06:13:08;;;;;;;37.63;14.63;;;;;;;14.89;75.88;101781.56;5026753;28;20093;-81
2022/05/12 06:15:34;;;;;;;35.40;14.23;;;;;;;14.93;75.79;101776.22;5029743;28;20029;-81
2022/05/12 06:18:05;;;;;;;34.40;13.27;;;;;;;14.96;75.63;101776.13;5029760;28;20083;-81
2022/05/12 06:20:30;;;;;;;33.45;12.98;;;;;;;14.94;75.11;101772.69;5027720;28;20036;-81
2022/05/12 06:22:56;;;;;;;30.73;13.80;;;;;;;14.95;75.90;101770.94;5025063;28;20021;-81
2022/05/12 06:25:21;;;;;;;39.83;13.70;;;;;;;15.01;75.45;101782.06;5026124;28;20824;-81
2022/05/12 06:27:47;;;;;;;34.30;14.00;;;;;;;15.11;75.46;101780.09;5026892;28;20033;-81
2022/05/12 06:30:13;;;;;;;32.00;12.98;;;;;;;15.14;76.73;101792.22;5034406;28;20032;-81
2022/05/12 06:32:39;;;;;;;34.17;13.43;;;;;;;15.19;74.03;101792.94;5025600;28;20476;-81
2022/05/12 06:35:07;;;;;;;31.88;13.00;;;;;;;15.20;74.34;101794.66;5028519;28;20639;-81
2022/05/12 06:37:33;;;;;;;36.97;12.70;;;;;;;15.23;72.88;101791.94;5029989;28;20033;-82
2022/05/12 06:39:59;;;;;;;31.33;12.43;;;;;;;15.24;72.90;101794.53;5023228;28;20044;-77
2022/05/12 06:42:24;;;;;;;25.00;11.33;;;;;;;15.29;71.98;101795.25;5029190;28;20561;-77
2022/05/12 06:44:50;;;;;;;28.55;11.10;;;;;;;15.34;71.63;101796.00;5027732;28;20288;-77
2022/05/12 06:47:15;;;;;;;32.50;11.85;;;;;;;15.75;70.79;101802.66;5026206;28;20144;-77
2022/05/12 06:49:42;;;;;;;27.27;11.20;;;;;;;16.77;69.18;101801.19;5027995;28;20377;-77
2022/05/12 06:52:08;;;;;;;25.15;10.63;;;;;;;17.35;64.30;101810.44;5033677;28;20032;-77
2022/05/12 06:54:35;;;;;;;27.83;10.85;;;;;;;17.69;63.21;101810.09;5048474;28;20597;-77
2022/05/12 06:57:02;;;;;;;30.58;11.32;;;;;;;18.09;62.88;101810.25;5031614;28;20032;-77
2022/05/12 06:59:27;;;;;;;24.05;10.63;;;;;;;18.50;61.34;101813.84;5034106;28;20050;-77
2022/05/12 07:01:53;;;;;;;24.00;9.82;;;;;;;18.68;61.90;101822.78;5031570;28;20339;-77
2022/05/12 07:04:19;;;;;;;24.73;11.23;;;;;;;19.04;59.18;101830.03;5032577;28;20037;-77
2022/05/12 07:06:45;;;;;;;26.15;10.63;;;;;;;19.56;58.81;101821.56;5028425;28;20018;-77
2022/05/12 07:09:10;;;;;;;23.88;10.40;;;;;;;19.71;56.28;101822.66;5032574;28;20036;-77
2022/05/12 07:11:36;;;;;;;24.05;10.23;;;;;;;19.32;56.88;101817.38;5031257;28;20535;-77
2022/05/12 07:14:01;;;;;;;20.93;10.10;;;;;;;19.08;57.08;101827.19;5032363;28;20025;-77
2022/05/12 07:16:26;;;;;;;23.47;10.33;;;;;;;18.87;56.85;101825.50;5032314;28;20298;-77
2022/05/12 07:18:52;;;;;;;23.07;10.70;;;;;;;18.68;56.69;101829.81;5031494;28;20283;-82
2022/05/12 07:26:45;;;;;;;27.35;11.70;;;;;;;19.17;57.98;101837.31;5032342;28;20036;-81
2022/05/12 07:29:14;;;;;;;24.92;11.20;;;;;;;19.42;56.32;101837.09;5032631;28;20036;-82
2022/05/12 07:31:41;;;;;;;25.80;12.30;;;;;;;19.41;54.52;101845.03;5029805;28;20481;-82
2022/05/12 07:34:06;;;;;;;27.38;11.80;;;;;;;19.63;55.51;101845.81;5031162;28;20388;-82
2022/05/12 07:36:35;;;;;;;22.05;11.77;;;;;;;20.16;54.40;101851.22;5031877;28;20474;-82
2022/05/12 07:39:02;;;;;;;23.95;12.20;;;;;;;21.02;52.54;101845.22;5031462;28;20025;-82
2022/05/12 07:41:28;;;;;;;23.80;12.52;;;;;;;21.07;50.56;101849.34;5030796;28;20075;-82
2022/05/12 07:43:54;;;;;;;25.92;12.85;;;;;;;20.44;51.25;101849.00;5031844;28;20029;-82
2022/05/12 07:46:30;;;;;;;22.98;12.15;;;;;;;20.28;55.14;101853.25;5030252;28;20033;-81
2022/05/12 07:48:56;;;;;;;22.90;11.57;;;;;;;20.73;51.19;101850.22;5031636;28;20030;-81
2022/05/12 07:51:22;;;;;;;21.67;11.70;;;;;;;21.39;49.62;101849.47;5033794;28;20551;-82
2022/05/12 07:53:49;;;;;;;21.27;11.90;;;;;;;21.11;48.22;101855.31;5030334;28;20372;-82
2022/05/12 07:56:20;;;;;;;23.23;10.90;;;;;;;20.29;50.87;101864.66;5030184;28;20606;-82
2022/05/12 07:58:46;;;;;;;22.58;11.27;;;;;;;20.03;55.14;101860.63;5031411;28;20041;-82
2022/05/12 08:01:13;;;;;;;22.35;10.88;;;;;;;21.17;52.05;101861.16;5029274;28;20133;-82
2022/05/12 08:03:39;;;;;;;19.95;10.05;;;;;;;22.57;45.59;101861.41;5030509;28;20029;-82
2022/05/12 08:06:04;;;;;;;17.25;9.45;;;;;;;22.90;46.55;101863.06;5030007;28;20111;-82
2022/05/12 08:08:30;;;;;;;30.02;9.20;;;;;;;23.76;45.75;101860.41;5030889;28;20072;-82
2022/05/12 08:10:55;;;;;;;15.65;9.45;;;;;;;24.53;42.60;101867.84;5031086;28;20037;-82
2022/05/12 08:13:21;;;;;;;17.70;8.02;;;;;;;23.96;41.60;101867.09;5030296;28;20033;-81
2022/05/12 08:15:49;;;;;;;15.38;8.25;;;;;;;23.40;43.72;101867.97;5031406;28;20433;-82
2022/05/12 08:18:21;;;;;;;17.98;8.48;;;;;;;23.56;43.77;101866.09;5031230;28;20032;-82
2022/05/12 08:20:47;;;;;;;18.65;9.00;;;;;;;24.06;42.70;101867.38;5030892;28;20033;-82
2022/05/12 08:23:13;;;;;;;15.32;8.13;;;;;;;24.30;40.33;101860.53;5030964;28;20104;-81
2022/05/12 08:25:39;;;;;;;17.08;7.20;;;;;;;23.75;40.77;101871.09;5031388;28;20029;-82
2022/05/12 08:28:05;;;;;;;16.38;7.28;;;;;;;23.19;42.03;101873.63;5030954;28;20025;-82
2022/05/12 08:30:31;;;;;;;10.60;6.45;;;;;;;23.21;42.33;101874.38;5028917;28;20140;-82
2022/05/12 08:32:57;;;;;;;18.75;7.72;;;;;;;23.31;41.08;101871.16;5030966;28;20049;-81
2022/05/12 08:35:24;;;;;;;13.30;7.53;;;;;;;23.53;40.46;101863.66;5031184;28;20534;-81
2022/05/12 08:37:49;;;;;;;13.73;6.45;;;;;;;23.51;38.71;101870.84;5030714;28;20510;-81
2022/05/12 08:40:23;;;;;;;10.45;5.63;;;;;;;23.72;41.01;101874.81;5029993;28;20025;-82
2022/05/12 08:42:48;;;;;;;11.00;5.60;;;;;;;23.91;40.47;101874.50;5030708;28;20030;-82
2022/05/12 08:45:18;;;;;;;12.77;6.50;;;;;;;23.93;38.28;101868.16;5030885;28;20027;-81
2022/05/12 08:47:46;;;;;;;17.27;6.40;;;;;;;23.96;38.51;101865.31;5030724;28;20013;-81
2022/05/12 08:50:20;;;;;;;14.48;6.35;;;;;;;23.83;38.88;101864.38;5049241;28;20581;-81
2022/05/12 08:52:51;;;;;;;;;;;;;;;23.84;42.66;101870.53;5031300;28;20045;-82
2022/05/12 08:55:29;;;;;;;11.85;5.10;;;;;;;23.67;40.38;101874.25;5030781;28;20368;-81
2022/05/12 08:58:05;;;;;;;9.80;4.80;;;;;;;23.25;38.39;101877.69;5030476;28;20114;-82
2022/05/12 09:00:58;;;;;;;14.35;5.05;;;;;;;22.88;41.79;101875.50;5029900;28;20435;-81
2022/05/12 09:03:27;;;;;;;10.38;5.30;;;;;;;22.98;40.68;101876.69;5030321;28;20041;-81
2022/05/12 09:06:02;;;;;;;12.70;5.15;;;;;;;22.81;40.77;101870.59;5045945;28;20415;-81
2022/05/12 09:08:40;;;;;;;10.85;5.30;;;;;;;22.40;40.21;101880.00;5030357;28;20145;-81
2022/05/12 09:11:15;;;;;;;12.55;5.38;;;;;;;22.14;38.56;101899.09;5028955;28;20025;-82
2022/05/12 09:13:46;;;;;;;9.23;3.72;;;;;;;21.90;38.56;101896.84;5029959;28;20326;-82
2022/05/12 09:16:18;;;;;;;9.07;3.63;;;;;;;21.81;39.56;101891.22;5030003;28;20112;-82
2022/05/12 09:18:44;;;;;;;9.30;4.00;;;;;;;22.05;39.14;101888.09;5028979;28;20037;-82
2022/05/12 09:21:13;;;;;;;7.72;4.35;;;;;;;22.15;38.67;101884.97;5029653;28;20098;-82
2022/05/12 09:23:39;;;;;;;8.48;4.03;;;;;;;22.24;38.93;101880.03;5030182;28;20025;-82
2022/05/12 09:26:32;;;;;;;8.88;4.53;;;;;;;22.51;38.77;101888.19;5030221;28;20025;-82
2022/05/12 09:29:19;;;;;;;8.57;4.82;;;;;;;22.22;37.04;101886.34;5029080;28;20085;-83
2022/05/12 09:31:50;;;;;;;8.93;4.32;;;;;;;21.56;37.89;101889.03;5029949;28;20035;-82
2022/05/12 09:34:23;;;;;;;9.73;3.63;;;;;;;21.08;40.88;101898.53;5028399;28;20021;-81
2022/05/12 09:36:49;;;;;;;9.00;3.60;;;;;;;20.68;38.53;101889.09;5030215;28;20056;-82
2022/05/12 09:39:36;;;;;;;7.07;3.10;;;;;;;20.33;40.99;101887.34;5029082;28;20107;-81
2022/05/12 09:42:02;;;;;;;8.70;3.63;;;;;;;20.47;39.61;101892.78;5029799;28;20101;-82
2022/05/12 09:44:31;;;;;;;6.97;3.40;;;;;;;21.00;42.19;101890.16;5029843;28;20018;-82
2022/05/12 09:47:09;;;;;;;10.70;3.85;;;;;;;21.54;39.07;101873.28;5029902;28;20032;-82
2022/05/12 09:49:39;;;;;;;8.85;3.60;;;;;;;22.01;38.71;101883.09;5028882;28;20364;-82
2022/05/12 09:52:29;;;;;;;8.98;4.25;;;;;;;22.38;37.29;101876.63;5029475;28;20032;-83
2022/05/12 09:55:12;;;;;;;6.57;3.40;;;;;;;22.72;38.25;101879.00;5029594;28;20037;-82
2022/05/12 09:57:46;;;;;;;9.57;4.00;;;;;;;22.61;35.55;101872.66;5029130;28;20104;-82
2022/05/12 10:00:24;;;;;;;;;;;;;;;22.71;37.33;101869.41;5029200;28;20295;-82
2022/05/12 10:08:27;;;;;;;7.70;3.78;;;;;;;21.73;37.63;101872.28;5028388;28;20048;-82
2022/05/12 10:11:02;;;;;;;9.07;3.22;;;;;;;21.45;39.49;101878.19;5027894;28;20033;-82
2022/05/12 10:13:46;;;;;;;9.25;3.00;;;;;;;21.13;37.90;101874.56;5029196;28;20029;-82
2022/05/12 10:16:15;;;;;;;8.00;3.33;;;;;;;20.75;38.28;101881.72;5029268;28;20044;-82
2022/05/12 10:18:52;;;;;;;6.47;3.20;;;;;;;20.44;41.29;101879.75;5027823;28;20141;-81
2022/05/12 10:21:37;;;;;;;6.70;2.80;;;;;;;20.22;40.93;101881.66;5029121;28;20128;-81
2022/05/12 10:24:12;;;;;;;6.10;2.78;;;;;;;20.43;41.39;101881.53;5029102;28;20032;-82
2022/05/12 10:26:59;;;;;;;7.28;3.13;;;;;;;20.85;39.66;101875.09;5027971;28;20551;-81
2022/05/12 10:29:54;;;;;;;8.35;3.67;;;;;;;21.12;38.32;101878.13;5029049;28;20033;-82
2022/05/12 10:32:38;;;;;;;8.70;3.65;;;;;;;21.47;35.85;101877.19;5029069;28;20057;-84
2022/05/12 10:35:08;;;;;;;9.05;3.17;;;;;;;21.60;37.58;101878.22;5029188;28;20036;-82
2022/05/12 10:38:04;;;;;;;8.45;3.28;;;;;;;21.61;36.70;101874.66;5028053;28;20040;-83
2022/05/12 10:40:38;;;;;;;7.53;3.40;;;;;;;21.42;36.41;101873.94;5042982;28;20014;-83
2022/05/12 10:43:13;;;;;;;7.07;2.97;;;;;;;21.20;35.93;101875.97;5044150;28;20033;-83
2022/05/12 10:45:54;;;;;;;9.07;3.20;;;;;;;21.18;36.23;101876.03;5028866;28;20487;-83
2022/05/12 10:48:58;;;;;;;13.70;3.90;;;;;;;21.54;37.54;101880.34;5027940;28;20033;-83
2022/05/12 10:51:45;;;;;;;9.88;3.10;;;;;;;21.41;34.85;101869.59;5028853;28;20595;-83
2022/05/12 10:54:13;;;;;;;6.95;2.70;;;;;;;21.34;37.83;101872.63;5028429;28;20033;-83
2022/05/12 10:56:46;;;;;;;6.65;3.05;;;;;;;21.33;36.12;101863.00;5043396;28;20053;-82
2022/05/12 10:59:25;;;;;;;6.45;2.60;;;;;;;21.34;35.79;101868.19;5024433;28;20144;-82
2022/05/12 11:02:14;;;;;;;7.85;2.80;;;;;;;21.55;34.36;101872.34;5028019;28;20022;-83
2022/05/12 11:04:49;;;;;;;5.57;2.40;;;;;;;21.85;34.44;101867.19;5032270;28;20188;-83
2022/05/12 11:07:24;;;;;;;6.85;2.60;;;;;;;22.25;34.93;101871.16;5028367;28;20032;-83
2022/05/12 11:10:03;;;;;;;6.35;2.65;;;;;;;22.44;34.23;101861.28;5029098;28;20030;-82
2022/05/12 11:12:43;;;;;;;13.43;2.55;;;;;;;22.62;34.65;101856.72;5028617;28;20100;-83
2022/05/12 11:15:22;;;;;;;7.03;2.30;;;;;;;22.97;35.12;101853.81;5029182;28;20036;-83
2022/05/12 11:17:58;;;;;;;5.55;2.42;;;;;;;23.06;32.69;101850.66;5025759;28;20498;-83
2022/05/12 11:20:36;;;;;;;7.60;2.60;;;;;;;23.26;33.45;101854.72;5020812;28;20017;-81
2022/05/12 11:23:22;;;;;;;6.43;2.92;;;;;;;23.39;32.64;101859.19;5027280;28;20059;-82
2022/05/12 11:25:56;;;;;;;5.60;2.83;;;;;;;23.33;30.26;101843.69;5037821;28;20026;-83
2022/05/12 11:31:24;;;;;;;5.47;2.92;;;;;;;23.34;31.43;101855.13;5030841;28;20036;-83
2022/05/12 11:33:58;;;;;;;4.55;2.35;;;;;;;23.16;31.71;101849.13;5028191;28;20479;-83
2022/05/12 11:36:45;;;;;;;6.32;2.60;;;;;;;23.20;33.38;101854.13;5028323;28;20514;-83
2022/05/12 11:39:25;;;;;;;6.00;2.50;;;;;;;22.96;32.48;101850.31;5029895;28;20061;-83
2022/05/12 11:42:11;;;;;;;4.82;2.40;;;;;;;22.68;33.65;101832.56;5032031;28;20114;-83
2022/05/12 11:44:46;;;;;;;7.93;3.13;;;;;;;22.37;32.40;101848.50;5020409;28;20041;-84
2022/05/12 11:47:26;;;;;;;6.25;3.15;;;;;;;22.10;33.58;101850.06;5031420;28;20120;-83